sensor_id;sensor_type;location;lat;lon;timestamp;temperature;humidity
55213;DHT22;41083;52.932;6.674;2023-02-28T00:01:24;3.80;99.90
55213;DHT22;41083;52.932;6.674;2023-02-28T00:03:50;3.80;99.90
55213;DHT22;41083;52.932;6.674;2023-02-28T00:06:16;3.80;99.90
55213;DHT22;41083;52.932;6.674;2023-02-28T00:08:42;3.80;99.90
55213;DHT22;41083;52.932;6.674;2023-02-28T00:11:11;3.80;99.90
55213;DHT22;41083;52.932;6.674;2023-02-28T00:13:40;3.80;99.90
55213;DHT22;41083;52.932;6.674;2023-02-28T00:16:08;3.80;99.90
55213;DHT22;41083;52.932;6.674;2023-02-28T00:18:35;3.80;99.90
55213;DHT22;41083;52.932;6.674;2023-02-28T00:21:00;3.80;99.90
55213;DHT22;41083;52.932;6.674;2023-02-28T00:23:27;3.80;99.90
55213;DHT22;41083;52.932;6.674;2023-02-28T00:25:53;3.80;99.90
55213;DHT22;41083;52.932;6.674;2023-02-28T00:28:19;3.80;99.90
55213;DHT22;41083;52.932;6.674;2023-02-28T00:30:45;3.80;99.90
55213;DHT22;41083;52.932;6.674;2023-02-28T00:33:10;3.80;99.90
55213;DHT22;41083;52.932;6.674;2023-02-28T00:35:36;3.80;99.90
55213;DHT22;41083;52.932;6.674;2023-02-28T00:38:02;3.80;99.90
55213;DHT22;41083;52.932;6.674;2023-02-28T00:40:28;3.80;99.90
55213;DHT22;41083;52.932;6.674;2023-02-28T00:42:54;3.80;99.90
55213;DHT22;41083;52.932;6.674;2023-02-28T00:45:19;3.80;99.90
55213;DHT22;41083;52.932;6.674;2023-02-28T00:47:45;3.80;99.90
55213;DHT22;41083;52.932;6.674;2023-02-28T00:50:12;3.80;99.90
55213;DHT22;41083;52.932;6.674;2023-02-28T00:52:38;3.80;99.90
55213;DHT22;41083;52.932;6.674;2023-02-28T00:55:04;3.80;99.90
55213;DHT22;41083;52.932;6.674;2023-02-28T00:57:30;3.80;99.90
55213;DHT22;41083;52.932;6.674;2023-02-28T00:59:55;3.80;99.90
55213;DHT22;41083;52.932;6.674;2023-02-28T01:02:22;3.80;99.90
55213;DHT22;41083;52.932;6.674;2023-02-28T01:04:48;3.80;99.90
55213;DHT22;41083;52.932;6.674;2023-02-28T01:07:14;3.80;99.90
55213;DHT22;41083;52.932;6.674;2023-02-28T01:09:40;3.80;99.90
55213;DHT22;41083;52.932;6.674;2023-02-28T01:12:08;3.80;99.90
55213;DHT22;41083;52.932;6.674;2023-02-28T01:14:33;3.80;99.90
55213;DHT22;41083;52.932;6.674;2023-02-28T01:17:00;3.80;99.90
55213;DHT22;41083;52.932;6.674;2023-02-28T01:19:25;3.80;99.90
55213;DHT22;41083;52.932;6.674;2023-02-28T01:21:51;3.80;99.90
55213;DHT22;41083;52.932;6.674;2023-02-28T01:24:16;3.90;99.90
55213;DHT22;41083;52.932;6.674;2023-02-28T01:26:42;3.80;99.90
55213;DHT22;41083;52.932;6.674;2023-02-28T01:29:08;3.90;99.90
55213;DHT22;41083;52.932;6.674;2023-02-28T01:31:33;3.90;99.90
55213;DHT22;41083;52.932;6.674;2023-02-28T01:33:59;3.90;99.90
55213;DHT22;41083;52.932;6.674;2023-02-28T01:36:25;3.80;99.90
55213;DHT22;41083;52.932;6.674;2023-02-28T01:38:51;3.80;99.90
55213;DHT22;41083;52.932;6.674;2023-02-28T01:41:25;3.80;99.90
55213;DHT22;41083;52.932;6.674;2023-02-28T01:46:21;3.80;99.90
55213;DHT22;41083;52.932;6.674;2023-02-28T01:49:25;3.90;99.90
55213;DHT22;41083;52.932;6.674;2023-02-28T01:51:53;3.90;99.90
55213;DHT22;41083;52.932;6.674;2023-02-28T01:54:26;3.90;99.90
55213;DHT22;41083;52.932;6.674;2023-02-28T01:57:13;3.90;99.90
55213;DHT22;41083;52.932;6.674;2023-02-28T02:00:01;3.90;99.90
55213;DHT22;41083;52.932;6.674;2023-02-28T02:02:30;3.90;99.90
55213;DHT22;41083;52.932;6.674;2023-02-28T02:05:04;3.90;99.90
55213;DHT22;41083;52.932;6.674;2023-02-28T02:07:36;3.90;99.90
55213;DHT22;41083;52.932;6.674;2023-02-28T02:13:13;3.90;99.90
55213;DHT22;41083;52.932;6.674;2023-02-28T02:18:45;3.90;99.90
55213;DHT22;41083;52.932;6.674;2023-02-28T02:21:29;3.90;99.90
55213;DHT22;41083;52.932;6.674;2023-02-28T02:24:12;3.90;99.90
55213;DHT22;41083;52.932;6.674;2023-02-28T02:27:22;3.90;99.90
55213;DHT22;41083;52.932;6.674;2023-02-28T02:30:10;3.90;99.90
55213;DHT22;41083;52.932;6.674;2023-02-28T02:33:15;3.90;99.90
55213;DHT22;41083;52.932;6.674;2023-02-28T02:36:24;3.90;99.90
55213;DHT22;41083;52.932;6.674;2023-02-28T02:39:05;3.90;99.90
55213;DHT22;41083;52.932;6.674;2023-02-28T02:41:39;3.80;99.90
55213;DHT22;41083;52.932;6.674;2023-02-28T02:44:27;3.80;99.90
55213;DHT22;41083;52.932;6.674;2023-02-28T02:46:59;3.80;99.90
55213;DHT22;41083;52.932;6.674;2023-02-28T02:49:31;3.80;99.90
55213;DHT22;41083;52.932;6.674;2023-02-28T02:52:04;3.80;99.90
55213;DHT22;41083;52.932;6.674;2023-02-28T02:54:38;3.80;99.90
55213;DHT22;41083;52.932;6.674;2023-02-28T02:57:23;3.80;99.90
55213;DHT22;41083;52.932;6.674;2023-02-28T02:59:51;3.80;99.90
55213;DHT22;41083;52.932;6.674;2023-02-28T03:02:20;3.70;99.90
55213;DHT22;41083;52.932;6.674;2023-02-28T03:04:52;3.80;99.90
55213;DHT22;41083;52.932;6.674;2023-02-28T03:07:19;3.80;99.90
55213;DHT22;41083;52.932;6.674;2023-02-28T03:09:52;3.80;99.90
55213;DHT22;41083;52.932;6.674;2023-02-28T03:12:18;3.80;99.90
55213;DHT22;41083;52.932;6.674;2023-02-28T03:15:05;3.70;99.90
55213;DHT22;41083;52.932;6.674;2023-02-28T03:17:47;3.80;99.90
55213;DHT22;41083;52.932;6.674;2023-02-28T03:20:27;3.70;99.90
55213;DHT22;41083;52.932;6.674;2023-02-28T03:25:41;3.80;99.90
55213;DHT22;41083;52.932;6.674;2023-02-28T03:28:16;3.80;99.90
55213;DHT22;41083;52.932;6.674;2023-02-28T03:30:50;3.70;99.90
55213;DHT22;41083;52.932;6.674;2023-02-28T03:33:29;3.70;99.90
55213;DHT22;41083;52.932;6.674;2023-02-28T03:36:22;3.70;99.90
55213;DHT22;41083;52.932;6.674;2023-02-28T03:38:59;3.80;99.90
55213;DHT22;41083;52.932;6.674;2023-02-28T03:41:35;3.70;99.90
55213;DHT22;41083;52.932;6.674;2023-02-28T03:44:07;3.70;99.90
55213;DHT22;41083;52.932;6.674;2023-02-28T03:46:38;3.70;99.90
55213;DHT22;41083;52.932;6.674;2023-02-28T03:49:23;3.70;99.90
55213;DHT22;41083;52.932;6.674;2023-02-28T03:51:50;3.80;99.90
55213;DHT22;41083;52.932;6.674;2023-02-28T03:54:21;3.80;99.90
55213;DHT22;41083;52.932;6.674;2023-02-28T03:57:05;3.70;99.90
55213;DHT22;41083;52.932;6.674;2023-02-28T04:00:12;3.70;99.90
55213;DHT22;41083;52.932;6.674;2023-02-28T04:02:39;3.70;99.90
55213;DHT22;41083;52.932;6.674;2023-02-28T04:05:06;3.70;99.90
55213;DHT22;41083;52.932;6.674;2023-02-28T04:07:32;3.70;99.90
55213;DHT22;41083;52.932;6.674;2023-02-28T04:09:58;3.80;99.90
55213;DHT22;41083;52.932;6.674;2023-02-28T04:12:24;3.80;99.90
55213;DHT22;41083;52.932;6.674;2023-02-28T04:14:50;3.70;99.90
55213;DHT22;41083;52.932;6.674;2023-02-28T04:17:16;3.70;99.90
55213;DHT22;41083;52.932;6.674;2023-02-28T04:19:43;3.70;99.90
55213;DHT22;41083;52.932;6.674;2023-02-28T04:22:09;3.70;99.90
55213;DHT22;41083;52.932;6.674;2023-02-28T04:24:36;3.70;99.90
55213;DHT22;41083;52.932;6.674;2023-02-28T04:27:02;3.70;99.90
55213;DHT22;41083;52.932;6.674;2023-02-28T04:29:29;3.70;99.90
55213;DHT22;41083;52.932;6.674;2023-02-28T04:31:56;3.70;99.90
55213;DHT22;41083;52.932;6.674;2023-02-28T04:34:30;3.70;99.90
55213;DHT22;41083;52.932;6.674;2023-02-28T04:36:56;3.70;99.90
55213;DHT22;41083;52.932;6.674;2023-02-28T04:39:23;3.70;99.90
55213;DHT22;41083;52.932;6.674;2023-02-28T04:41:49;3.70;99.90
55213;DHT22;41083;52.932;6.674;2023-02-28T04:44:15;3.70;99.90
55213;DHT22;41083;52.932;6.674;2023-02-28T04:46:42;3.70;99.90
55213;DHT22;41083;52.932;6.674;2023-02-28T04:49:11;3.70;99.90
55213;DHT22;41083;52.932;6.674;2023-02-28T04:51:38;3.70;99.90
55213;DHT22;41083;52.932;6.674;2023-02-28T04:54:04;3.80;99.90
55213;DHT22;41083;52.932;6.674;2023-02-28T04:56:30;3.70;99.90
55213;DHT22;41083;52.932;6.674;2023-02-28T04:58:55;3.70;99.90
55213;DHT22;41083;52.932;6.674;2023-02-28T05:03:50;3.70;99.90
55213;DHT22;41083;52.932;6.674;2023-02-28T05:06:16;3.70;99.90
55213;DHT22;41083;52.932;6.674;2023-02-28T05:08:42;3.70;99.90
55213;DHT22;41083;52.932;6.674;2023-02-28T05:11:20;3.70;99.90
55213;DHT22;41083;52.932;6.674;2023-02-28T05:13:47;3.70;99.90
55213;DHT22;41083;52.932;6.674;2023-02-28T05:16:13;3.70;99.90
55213;DHT22;41083;52.932;6.674;2023-02-28T05:18:39;3.70;99.90
55213;DHT22;41083;52.932;6.674;2023-02-28T05:21:05;3.60;99.90
55213;DHT22;41083;52.932;6.674;2023-02-28T05:23:31;3.60;99.90
55213;DHT22;41083;52.932;6.674;2023-02-28T05:25:56;3.50;99.90
55213;DHT22;41083;52.932;6.674;2023-02-28T05:28:22;3.50;99.90
55213;DHT22;41083;52.932;6.674;2023-02-28T05:30:48;3.50;99.90
55213;DHT22;41083;52.932;6.674;2023-02-28T05:33:13;3.40;99.90
55213;DHT22;41083;52.932;6.674;2023-02-28T05:35:40;3.50;99.90
55213;DHT22;41083;52.932;6.674;2023-02-28T05:38:06;3.40;99.90
55213;DHT22;41083;52.932;6.674;2023-02-28T05:40:32;3.40;99.90
55213;DHT22;41083;52.932;6.674;2023-02-28T05:42:57;3.40;99.90
55213;DHT22;41083;52.932;6.674;2023-02-28T05:45:23;3.40;99.90
55213;DHT22;41083;52.932;6.674;2023-02-28T05:47:48;3.40;99.90
55213;DHT22;41083;52.932;6.674;2023-02-28T05:50:14;3.40;99.90
55213;DHT22;41083;52.932;6.674;2023-02-28T05:52:40;3.30;99.90
55213;DHT22;41083;52.932;6.674;2023-02-28T05:55:06;3.30;99.90
55213;DHT22;41083;52.932;6.674;2023-02-28T05:57:32;3.30;99.90
55213;DHT22;41083;52.932;6.674;2023-02-28T05:59:57;3.40;99.90
55213;DHT22;41083;52.932;6.674;2023-02-28T06:02:23;3.30;99.90
55213;DHT22;41083;52.932;6.674;2023-02-28T06:04:48;3.30;99.90
55213;DHT22;41083;52.932;6.674;2023-02-28T06:07:14;3.30;99.90
55213;DHT22;41083;52.932;6.674;2023-02-28T06:09:40;3.30;99.90
55213;DHT22;41083;52.932;6.674;2023-02-28T06:12:06;3.30;99.90
55213;DHT22;41083;52.932;6.674;2023-02-28T06:14:33;3.30;99.90
55213;DHT22;41083;52.932;6.674;2023-02-28T06:16:59;3.30;99.90
55213;DHT22;41083;52.932;6.674;2023-02-28T06:19:25;3.30;99.90
55213;DHT22;41083;52.932;6.674;2023-02-28T06:21:52;3.30;99.90
55213;DHT22;41083;52.932;6.674;2023-02-28T06:24:19;3.30;99.90
55213;DHT22;41083;52.932;6.674;2023-02-28T06:26:45;3.30;99.90
55213;DHT22;41083;52.932;6.674;2023-02-28T06:29:11;3.30;99.90
55213;DHT22;41083;52.932;6.674;2023-02-28T06:31:37;3.30;99.90
55213;DHT22;41083;52.932;6.674;2023-02-28T06:34:04;3.40;99.90
55213;DHT22;41083;52.932;6.674;2023-02-28T06:36:30;3.30;99.90
55213;DHT22;41083;52.932;6.674;2023-02-28T06:38:56;3.30;99.90
55213;DHT22;41083;52.932;6.674;2023-02-28T06:41:23;3.30;99.90
55213;DHT22;41083;52.932;6.674;2023-02-28T06:43:49;3.30;99.90
55213;DHT22;41083;52.932;6.674;2023-02-28T06:46:15;3.30;99.90
55213;DHT22;41083;52.932;6.674;2023-02-28T06:48:42;3.30;99.90
55213;DHT22;41083;52.932;6.674;2023-02-28T06:51:14;3.30;99.90
55213;DHT22;41083;52.932;6.674;2023-02-28T06:53:40;3.40;99.90
55213;DHT22;41083;52.932;6.674;2023-02-28T06:56:12;3.30;99.90
55213;DHT22;41083;52.932;6.674;2023-02-28T06:58:38;3.30;99.90
55213;DHT22;41083;52.932;6.674;2023-02-28T07:01:05;3.30;99.90
55213;DHT22;41083;52.932;6.674;2023-02-28T07:03:31;3.30;99.90
55213;DHT22;41083;52.932;6.674;2023-02-28T07:05:56;3.30;99.90
55213;DHT22;41083;52.932;6.674;2023-02-28T07:08:23;3.30;99.90
55213;DHT22;41083;52.932;6.674;2023-02-28T07:10:52;3.30;99.90
55213;DHT22;41083;52.932;6.674;2023-02-28T07:13:18;3.30;99.90
55213;DHT22;41083;52.932;6.674;2023-02-28T07:15:43;3.30;99.90
55213;DHT22;41083;52.932;6.674;2023-02-28T07:18:09;3.30;99.90
55213;DHT22;41083;52.932;6.674;2023-02-28T07:20:35;3.30;99.90
55213;DHT22;41083;52.932;6.674;2023-02-28T07:23:00;3.30;99.90
55213;DHT22;41083;52.932;6.674;2023-02-28T07:25:27;3.30;99.90
55213;DHT22;41083;52.932;6.674;2023-02-28T07:27:54;3.30;99.90
55213;DHT22;41083;52.932;6.674;2023-02-28T07:30:20;3.40;99.90
55213;DHT22;41083;52.932;6.674;2023-02-28T07:32:46;3.40;99.90
55213;DHT22;41083;52.932;6.674;2023-02-28T07:35:12;3.40;99.90
55213;DHT22;41083;52.932;6.674;2023-02-28T07:37:38;3.40;99.90
55213;DHT22;41083;52.932;6.674;2023-02-28T07:40:05;3.40;99.90
55213;DHT22;41083;52.932;6.674;2023-02-28T07:42:36;3.40;99.90
55213;DHT22;41083;52.932;6.674;2023-02-28T07:45:01;3.50;99.90
55213;DHT22;41083;52.932;6.674;2023-02-28T07:47:29;3.50;99.90
55213;DHT22;41083;52.932;6.674;2023-02-28T07:49:55;3.50;99.90
55213;DHT22;41083;52.932;6.674;2023-02-28T07:52:21;3.50;99.90
55213;DHT22;41083;52.932;6.674;2023-02-28T07:54:49;3.50;99.90
55213;DHT22;41083;52.932;6.674;2023-02-28T07:57:14;3.60;99.90
55213;DHT22;41083;52.932;6.674;2023-02-28T07:59:40;3.60;99.90
55213;DHT22;41083;52.932;6.674;2023-02-28T08:02:05;3.60;99.90
55213;DHT22;41083;52.932;6.674;2023-02-28T08:04:32;3.60;99.90
55213;DHT22;41083;52.932;6.674;2023-02-28T08:06:58;3.60;99.90
55213;DHT22;41083;52.932;6.674;2023-02-28T08:09:23;3.60;99.90
55213;DHT22;41083;52.932;6.674;2023-02-28T08:11:49;3.60;99.90
55213;DHT22;41083;52.932;6.674;2023-02-28T08:14:15;3.60;99.90
55213;DHT22;41083;52.932;6.674;2023-02-28T08:16:41;3.60;99.90
55213;DHT22;41083;52.932;6.674;2023-02-28T08:19:08;3.70;99.90
55213;DHT22;41083;52.932;6.674;2023-02-28T08:21:34;3.70;99.90
55213;DHT22;41083;52.932;6.674;2023-02-28T08:24:00;3.70;99.90
55213;DHT22;41083;52.932;6.674;2023-02-28T08:26:25;3.70;99.90
55213;DHT22;41083;52.932;6.674;2023-02-28T08:28:51;3.80;99.90
55213;DHT22;41083;52.932;6.674;2023-02-28T08:31:18;3.80;99.90
55213;DHT22;41083;52.932;6.674;2023-02-28T08:33:44;3.80;99.90
55213;DHT22;41083;52.932;6.674;2023-02-28T08:36:11;3.90;99.90
55213;DHT22;41083;52.932;6.674;2023-02-28T08:38:37;3.90;99.90
55213;DHT22;41083;52.932;6.674;2023-02-28T08:41:06;3.90;99.90
55213;DHT22;41083;52.932;6.674;2023-02-28T08:43:33;3.90;99.90
55213;DHT22;41083;52.932;6.674;2023-02-28T08:45:59;3.90;99.90
55213;DHT22;41083;52.932;6.674;2023-02-28T08:48:26;3.90;99.90
55213;DHT22;41083;52.932;6.674;2023-02-28T08:51:00;3.90;99.90
55213;DHT22;41083;52.932;6.674;2023-02-28T08:53:26;4.00;99.90
55213;DHT22;41083;52.932;6.674;2023-02-28T08:56:04;4.00;99.90
55213;DHT22;41083;52.932;6.674;2023-02-28T08:58:30;4.10;99.90
55213;DHT22;41083;52.932;6.674;2023-02-28T09:00:56;4.10;99.90
55213;DHT22;41083;52.932;6.674;2023-02-28T09:03:22;4.10;99.90
55213;DHT22;41083;52.932;6.674;2023-02-28T09:05:59;4.10;99.90
55213;DHT22;41083;52.932;6.674;2023-02-28T09:08:28;4.20;99.90
55213;DHT22;41083;52.932;6.674;2023-02-28T09:10:55;4.20;99.90
55213;DHT22;41083;52.932;6.674;2023-02-28T09:13:24;4.20;99.90
55213;DHT22;41083;52.932;6.674;2023-02-28T09:15:49;4.10;99.90
55213;DHT22;41083;52.932;6.674;2023-02-28T09:18:15;4.10;99.90
55213;DHT22;41083;52.932;6.674;2023-02-28T09:20:42;4.10;99.90
55213;DHT22;41083;52.932;6.674;2023-02-28T09:23:10;4.10;99.90
55213;DHT22;41083;52.932;6.674;2023-02-28T09:25:36;4.10;99.90
55213;DHT22;41083;52.932;6.674;2023-02-28T09:28:02;4.10;99.90
55213;DHT22;41083;52.932;6.674;2023-02-28T09:30:28;4.00;99.90
55213;DHT22;41083;52.932;6.674;2023-02-28T09:32:54;4.00;99.90
55213;DHT22;41083;52.932;6.674;2023-02-28T09:35:23;4.00;99.90
55213;DHT22;41083;52.932;6.674;2023-02-28T09:37:50;4.00;99.90
55213;DHT22;41083;52.932;6.674;2023-02-28T09:40:22;4.10;99.90
55213;DHT22;41083;52.932;6.674;2023-02-28T09:42:51;4.10;99.90
55213;DHT22;41083;52.932;6.674;2023-02-28T09:45:39;4.10;99.90
55213;DHT22;41083;52.932;6.674;2023-02-28T09:48:19;4.10;99.90
55213;DHT22;41083;52.932;6.674;2023-02-28T09:51:00;4.10;99.90
55213;DHT22;41083;52.932;6.674;2023-02-28T09:53:36;4.20;99.90
55213;DHT22;41083;52.932;6.674;2023-02-28T09:56:15;4.20;99.90
55213;DHT22;41083;52.932;6.674;2023-02-28T09:58:56;4.20;99.90
55213;DHT22;41083;52.932;6.674;2023-02-28T10:12:53;4.40;99.90
55213;DHT22;41083;52.932;6.674;2023-02-28T10:15:23;4.50;99.90
55213;DHT22;41083;52.932;6.674;2023-02-28T10:17:54;4.50;99.90
55213;DHT22;41083;52.932;6.674;2023-02-28T10:20:22;4.50;99.90
55213;DHT22;41083;52.932;6.674;2023-02-28T10:22:56;4.50;99.90
55213;DHT22;41083;52.932;6.674;2023-02-28T10:25:28;4.50;99.90
55213;DHT22;41083;52.932;6.674;2023-02-28T10:28:07;4.50;99.90
55213;DHT22;41083;52.932;6.674;2023-02-28T10:30:36;4.60;99.90
55213;DHT22;41083;52.932;6.674;2023-02-28T10:33:03;4.60;99.90
55213;DHT22;41083;52.932;6.674;2023-02-28T10:35:29;4.60;99.90
55213;DHT22;41083;52.932;6.674;2023-02-28T10:37:59;4.60;99.90
55213;DHT22;41083;52.932;6.674;2023-02-28T10:40:33;4.70;99.90
55213;DHT22;41083;52.932;6.674;2023-02-28T10:45:33;4.70;99.90
55213;DHT22;41083;52.932;6.674;2023-02-28T10:50:52;4.70;99.90
55213;DHT22;41083;52.932;6.674;2023-02-28T10:56:02;4.80;99.90
55213;DHT22;41083;52.932;6.674;2023-02-28T10:58:50;4.80;99.90
55213;DHT22;41083;52.932;6.674;2023-02-28T11:01:24;4.80;99.90
55213;DHT22;41083;52.932;6.674;2023-02-28T11:03:59;4.90;99.90
55213;DHT22;41083;52.932;6.674;2023-02-28T11:06:33;5.00;99.90
55213;DHT22;41083;52.932;6.674;2023-02-28T11:09:03;5.00;99.90
55213;DHT22;41083;52.932;6.674;2023-02-28T11:11:40;5.10;99.90
55213;DHT22;41083;52.932;6.674;2023-02-28T11:14:21;5.10;99.90
55213;DHT22;41083;52.932;6.674;2023-02-28T11:16:48;5.10;99.90
55213;DHT22;41083;52.932;6.674;2023-02-28T11:19:39;5.20;99.90
55213;DHT22;41083;52.932;6.674;2023-02-28T11:22:05;5.20;99.90
55213;DHT22;41083;52.932;6.674;2023-02-28T11:24:39;5.20;99.90
55213;DHT22;41083;52.932;6.674;2023-02-28T11:27:11;5.20;99.90
55213;DHT22;41083;52.932;6.674;2023-02-28T11:29:47;5.20;99.90
55213;DHT22;41083;52.932;6.674;2023-02-28T11:32:19;5.30;99.90
55213;DHT22;41083;52.932;6.674;2023-02-28T11:34:47;5.40;99.90
55213;DHT22;41083;52.932;6.674;2023-02-28T11:37:26;5.50;99.90
55213;DHT22;41083;52.932;6.674;2023-02-28T11:39:52;5.50;99.90
55213;DHT22;41083;52.932;6.674;2023-02-28T11:45:09;5.60;99.90
55213;DHT22;41083;52.932;6.674;2023-02-28T11:48:10;5.60;99.90
55213;DHT22;41083;52.932;6.674;2023-02-28T11:54:29;5.60;99.90
55213;DHT22;41083;52.932;6.674;2023-02-28T11:57:35;5.70;99.90
55213;DHT22;41083;52.932;6.674;2023-02-28T12:03:11;5.60;99.90
55213;DHT22;41083;52.932;6.674;2023-02-28T12:05:55;5.60;99.90
55213;DHT22;41083;52.932;6.674;2023-02-28T12:08:39;5.60;99.90
55213;DHT22;41083;52.932;6.674;2023-02-28T12:14:36;5.70;99.90
55213;DHT22;41083;52.932;6.674;2023-02-28T12:16:37;5.60;99.90
55213;DHT22;41083;52.932;6.674;2023-02-28T12:22:00;5.60;99.90
55213;DHT22;41083;52.932;6.674;2023-02-28T12:24:42;5.60;99.90
55213;DHT22;41083;52.932;6.674;2023-02-28T12:27:17;5.60;99.90
55213;DHT22;41083;52.932;6.674;2023-02-28T12:32:39;5.60;99.90
55213;DHT22;41083;52.932;6.674;2023-02-28T12:35:38;5.60;99.90
55213;DHT22;41083;52.932;6.674;2023-02-28T12:38:14;5.60;99.90
55213;DHT22;41083;52.932;6.674;2023-02-28T12:40:55;5.60;99.90
55213;DHT22;41083;52.932;6.674;2023-02-28T12:43:24;5.60;99.90
55213;DHT22;41083;52.932;6.674;2023-02-28T12:45:57;5.60;99.90
55213;DHT22;41083;52.932;6.674;2023-02-28T12:48:31;5.60;99.90
55213;DHT22;41083;52.932;6.674;2023-02-28T12:50:59;5.50;99.90
55213;DHT22;41083;52.932;6.674;2023-02-28T12:56:19;5.50;99.90
55213;DHT22;41083;52.932;6.674;2023-02-28T12:58:48;5.50;99.90
55213;DHT22;41083;52.932;6.674;2023-02-28T13:09:23;5.50;99.90
55213;DHT22;41083;52.932;6.674;2023-02-28T13:11:50;5.50;99.90
55213;DHT22;41083;52.932;6.674;2023-02-28T13:14:27;5.50;99.90
55213;DHT22;41083;52.932;6.674;2023-02-28T13:19:42;5.50;99.90
55213;DHT22;41083;52.932;6.674;2023-02-28T13:27:50;5.50;99.90
55213;DHT22;41083;52.932;6.674;2023-02-28T13:33:32;5.50;99.90
55213;DHT22;41083;52.932;6.674;2023-02-28T13:44:30;5.60;99.90
55213;DHT22;41083;52.932;6.674;2023-02-28T13:47:28;5.60;99.90
55213;DHT22;41083;52.932;6.674;2023-02-28T13:58:41;5.80;99.90
55213;DHT22;41083;52.932;6.674;2023-02-28T14:05:05;5.90;99.90
55213;DHT22;41083;52.932;6.674;2023-02-28T14:07:43;5.90;99.90
55213;DHT22;41083;52.932;6.674;2023-02-28T14:10:22;5.90;99.90
55213;DHT22;41083;52.932;6.674;2023-02-28T14:12:55;5.90;99.90
55213;DHT22;41083;52.932;6.674;2023-02-28T14:18:32;5.90;99.90
55213;DHT22;41083;52.932;6.674;2023-02-28T14:35:20;5.90;99.90
55213;DHT22;41083;52.932;6.674;2023-02-28T14:37:48;5.90;99.90
55213;DHT22;41083;52.932;6.674;2023-02-28T14:40:33;6.00;99.90
55213;DHT22;41083;52.932;6.674;2023-02-28T14:43:02;6.00;99.90
55213;DHT22;41083;52.932;6.674;2023-02-28T14:45:30;6.00;99.90
55213;DHT22;41083;52.932;6.674;2023-02-28T14:47:56;6.00;99.90
55213;DHT22;41083;52.932;6.674;2023-02-28T14:50:27;6.00;99.90
55213;DHT22;41083;52.932;6.674;2023-02-28T14:52:55;6.00;99.90
55213;DHT22;41083;52.932;6.674;2023-02-28T14:55:30;6.00;99.90
55213;DHT22;41083;52.932;6.674;2023-02-28T14:58:05;6.00;99.90
55213;DHT22;41083;52.932;6.674;2023-02-28T15:00:36;6.00;99.90
55213;DHT22;41083;52.932;6.674;2023-02-28T15:05:59;6.00;99.90
55213;DHT22;41083;52.932;6.674;2023-02-28T15:08:25;6.00;99.90
55213;DHT22;41083;52.932;6.674;2023-02-28T15:11:03;6.00;99.90
55213;DHT22;41083;52.932;6.674;2023-02-28T15:13:50;6.00;99.90
55213;DHT22;41083;52.932;6.674;2023-02-28T15:16:20;5.90;99.90
55213;DHT22;41083;52.932;6.674;2023-02-28T15:21:50;5.90;99.90
55213;DHT22;41083;52.932;6.674;2023-02-28T15:24:20;5.90;99.90
55213;DHT22;41083;52.932;6.674;2023-02-28T15:26:54;5.80;99.90
55213;DHT22;41083;52.932;6.674;2023-02-28T15:29:23;5.80;99.90
55213;DHT22;41083;52.932;6.674;2023-02-28T15:32:01;5.80;99.90
55213;DHT22;41083;52.932;6.674;2023-02-28T15:34:40;5.80;99.90
55213;DHT22;41083;52.932;6.674;2023-02-28T15:39:50;5.80;99.90
55213;DHT22;41083;52.932;6.674;2023-02-28T15:42:21;5.80;99.90
55213;DHT22;41083;52.932;6.674;2023-02-28T15:44:47;5.80;99.90
55213;DHT22;41083;52.932;6.674;2023-02-28T15:47:23;5.80;99.90
55213;DHT22;41083;52.932;6.674;2023-02-28T15:50:10;5.90;99.90
55213;DHT22;41083;52.932;6.674;2023-02-28T15:52:43;5.80;99.70
55213;DHT22;41083;52.932;6.674;2023-02-28T15:55:21;5.80;99.90
55213;DHT22;41083;52.932;6.674;2023-02-28T15:57:51;5.90;99.90
55213;DHT22;41083;52.932;6.674;2023-02-28T16:00:22;5.80;99.90
55213;DHT22;41083;52.932;6.674;2023-02-28T16:02:49;5.90;99.90
55213;DHT22;41083;52.932;6.674;2023-02-28T16:05:22;5.80;99.90
55213;DHT22;41083;52.932;6.674;2023-02-28T16:07:54;5.90;99.90
55213;DHT22;41083;52.932;6.674;2023-02-28T16:10:21;5.80;99.90
55213;DHT22;41083;52.932;6.674;2023-02-28T16:12:50;5.90;99.90
55213;DHT22;41083;52.932;6.674;2023-02-28T16:15:41;5.80;99.90
55213;DHT22;41083;52.932;6.674;2023-02-28T16:18:11;5.80;99.90
55213;DHT22;41083;52.932;6.674;2023-02-28T16:20:37;5.80;99.90
55213;DHT22;41083;52.932;6.674;2023-02-28T16:23:03;5.80;99.90
55213;DHT22;41083;52.932;6.674;2023-02-28T16:25:40;5.80;99.90
55213;DHT22;41083;52.932;6.674;2023-02-28T16:28:30;5.70;99.90
55213;DHT22;41083;52.932;6.674;2023-02-28T16:30:59;5.70;99.90
55213;DHT22;41083;52.932;6.674;2023-02-28T16:33:25;5.70;99.90
55213;DHT22;41083;52.932;6.674;2023-02-28T16:35:51;5.70;99.90
55213;DHT22;41083;52.932;6.674;2023-02-28T16:38:17;5.60;99.90
55213;DHT22;41083;52.932;6.674;2023-02-28T16:40:43;5.60;99.90
55213;DHT22;41083;52.932;6.674;2023-02-28T16:43:15;5.60;99.90
55213;DHT22;41083;52.932;6.674;2023-02-28T16:45:41;5.50;99.90
55213;DHT22;41083;52.932;6.674;2023-02-28T16:48:12;5.50;99.90
55213;DHT22;41083;52.932;6.674;2023-02-28T16:50:38;5.50;99.90
55213;DHT22;41083;52.932;6.674;2023-02-28T16:53:04;5.50;99.90
55213;DHT22;41083;52.932;6.674;2023-02-28T16:55:30;5.40;99.90
55213;DHT22;41083;52.932;6.674;2023-02-28T16:57:57;5.40;99.90
55213;DHT22;41083;52.932;6.674;2023-02-28T17:00:24;5.30;99.90
55213;DHT22;41083;52.932;6.674;2023-02-28T17:02:50;5.30;99.90
55213;DHT22;41083;52.932;6.674;2023-02-28T17:05:16;5.30;99.90
55213;DHT22;41083;52.932;6.674;2023-02-28T17:07:43;5.20;99.90
55213;DHT22;41083;52.932;6.674;2023-02-28T17:10:16;5.20;99.90
55213;DHT22;41083;52.932;6.674;2023-02-28T17:12:43;5.10;99.90
55213;DHT22;41083;52.932;6.674;2023-02-28T17:15:13;5.10;99.90
55213;DHT22;41083;52.932;6.674;2023-02-28T17:17:40;5.00;99.90
55213;DHT22;41083;52.932;6.674;2023-02-28T17:20:09;5.00;99.90
55213;DHT22;41083;52.932;6.674;2023-02-28T17:22:36;4.90;99.90
55213;DHT22;41083;52.932;6.674;2023-02-28T17:25:02;4.90;99.90
55213;DHT22;41083;52.932;6.674;2023-02-28T17:27:27;4.90;99.90
55213;DHT22;41083;52.932;6.674;2023-02-28T17:29:56;4.80;99.90
55213;DHT22;41083;52.932;6.674;2023-02-28T17:32:22;4.80;99.90
55213;DHT22;41083;52.932;6.674;2023-02-28T17:34:47;4.80;99.90
55213;DHT22;41083;52.932;6.674;2023-02-28T17:37:13;4.80;99.90
55213;DHT22;41083;52.932;6.674;2023-02-28T17:39:39;4.70;99.90
55213;DHT22;41083;52.932;6.674;2023-02-28T17:42:05;4.80;99.90
55213;DHT22;41083;52.932;6.674;2023-02-28T17:44:34;4.60;99.90
55213;DHT22;41083;52.932;6.674;2023-02-28T17:47:00;4.60;99.90
55213;DHT22;41083;52.932;6.674;2023-02-28T17:49:25;4.60;99.90
55213;DHT22;41083;52.932;6.674;2023-02-28T17:51:51;4.60;99.90
55213;DHT22;41083;52.932;6.674;2023-02-28T17:54:17;4.50;99.90
55213;DHT22;41083;52.932;6.674;2023-02-28T17:56:43;4.40;99.90
55213;DHT22;41083;52.932;6.674;2023-02-28T17:59:09;4.30;99.90
55213;DHT22;41083;52.932;6.674;2023-02-28T18:01:35;4.20;99.90
55213;DHT22;41083;52.932;6.674;2023-02-28T18:04:01;4.10;99.90
55213;DHT22;41083;52.932;6.674;2023-02-28T18:06:39;4.10;99.90